createdAt,value
2023-01-28T00:01:19.752Z,89.22
2023-01-28T00:03:51.195Z,89.52
2023-01-28T00:06:19.926Z,90.37
2023-01-28T00:08:47.595Z,89.80
2023-01-28T00:11:15.423Z,90.39
2023-01-28T00:13:43.174Z,91.14
2023-01-28T00:16:11.376Z,90.83
2023-01-28T00:18:40.737Z,90.44
2023-01-28T00:21:11.402Z,90.88
2023-01-28T00:23:41.480Z,90.98
2023-01-28T00:26:12.749Z,91.19
2023-01-28T00:28:40.495Z,90.69
2023-01-28T00:31:09.876Z,90.25
2023-01-28T00:33:37.632Z,89.93
2023-01-28T00:36:07.586Z,90.59
2023-01-28T00:38:35.424Z,90.66
2023-01-28T00:41:09.479Z,90.19
2023-01-28T00:43:37.485Z,90.03
2023-01-28T00:46:07.368Z,90.06
2023-01-28T00:48:35.457Z,90.15
2023-01-28T00:51:03.188Z,89.52
2023-01-28T00:53:33.026Z,89.85
2023-01-28T00:56:01.088Z,89.70
2023-01-28T01:00:57.909Z,90.45
2023-01-28T01:03:25.577Z,90.34
2023-01-28T01:05:53.196Z,90.72
2023-01-28T01:08:30.675Z,90.95
2023-01-28T01:11:01.241Z,90.95
2023-01-28T01:13:28.955Z,90.89
2023-01-28T01:16:03.518Z,90.44
2023-01-28T01:18:31.182Z,90.50
2023-01-28T01:20:59.346Z,91.19
2023-01-28T01:23:27.439Z,91.55
2023-01-28T01:25:55.380Z,91.76
2023-01-28T01:28:24.747Z,91.69
2023-01-28T01:31:01.266Z,91.90
2023-01-28T01:33:29.908Z,92.01
2023-01-28T01:35:58.201Z,92.33
2023-01-28T01:38:26.505Z,92.62
2023-01-28T01:40:57.829Z,92.60
2023-01-28T01:43:46.743Z,92.28
2023-01-28T01:46:16.778Z,92.87
2023-01-28T01:48:44.663Z,92.82
2023-01-28T01:51:15.803Z,92.67
2023-01-28T01:53:46.693Z,92.89
2023-01-28T01:56:17.979Z,92.61
2023-01-28T01:58:50.896Z,92.97
2023-01-28T02:01:22.129Z,92.61
2023-01-28T02:03:56.440Z,92.28
2023-01-28T02:06:25.013Z,92.21
2023-01-28T02:08:55.243Z,92.22
2023-01-28T02:11:24.168Z,91.87
2023-01-28T02:13:57.857Z,92.02
2023-01-28T02:16:26.986Z,91.68
2023-01-28T02:18:54.715Z,91.75
2023-01-28T02:21:57.733Z,91.93
2023-01-28T02:24:55.157Z,92.08
2023-01-28T02:27:32.395Z,92.07
2023-01-28T02:30:08.446Z,92.16
2023-01-28T02:32:44.217Z,91.97
2023-01-28T02:35:17.176Z,92.39
2023-01-28T02:37:52.012Z,92.16
2023-01-28T02:40:24.324Z,92.05
2023-01-28T02:42:52.635Z,92.52
2023-01-28T02:45:25.077Z,92.13
2023-01-28T02:47:58.509Z,92.68
2023-01-28T02:50:33.924Z,91.77
2023-01-28T02:53:31.875Z,92.21
2023-01-28T02:56:08.755Z,91.87
2023-01-28T02:58:40.717Z,92.32
2023-01-28T03:01:19.990Z,91.79
2023-01-28T03:03:58.462Z,92.29
2023-01-28T03:06:35.653Z,92.01
2023-01-28T03:09:26.802Z,92.03
2023-01-28T03:12:15.260Z,91.46
2023-01-28T03:15:02.126Z,91.10
2023-01-28T03:17:54.328Z,91.58
2023-01-28T03:20:41.730Z,91.40
2023-01-28T03:23:30.437Z,91.20
2023-01-28T03:26:20.177Z,91.45
2023-01-28T03:29:08.123Z,91.75
2023-01-28T03:31:56.109Z,92.04
2023-01-28T03:34:42.690Z,92.36
2023-01-28T03:37:10.786Z,91.71
2023-01-28T03:39:38.828Z,91.88
2023-01-28T03:42:09.745Z,91.23
2023-01-28T03:44:53.228Z,91.33
2023-01-28T03:47:22.570Z,92.04
2023-01-28T03:49:53.629Z,92.29
2023-01-28T03:52:23.033Z,91.49
2023-01-28T03:54:52.726Z,91.45
2023-01-28T03:57:23.203Z,91.00
2023-01-28T03:59:50.762Z,91.33
2023-01-28T04:02:19.442Z,91.00
2023-01-28T04:04:47.082Z,89.70
2023-01-28T04:07:16.401Z,89.45
2023-01-28T04:09:44.480Z,87.57
2023-01-28T04:12:12.499Z,87.42
2023-01-28T04:14:40.609Z,87.54
2023-01-28T04:17:10.606Z,87.12
2023-01-28T04:19:40.244Z,85.84
2023-01-28T04:22:10.999Z,85.51
2023-01-28T04:24:40.095Z,85.59
2023-01-28T04:27:07.796Z,84.69
2023-01-28T04:29:35.531Z,84.44
2023-01-28T04:32:03.161Z,83.80
2023-01-28T04:34:30.835Z,83.10
2023-01-28T04:36:58.968Z,83.27
2023-01-28T04:39:26.625Z,82.85
2023-01-28T04:41:55.636Z,82.92
2023-01-28T04:44:23.437Z,82.55
2023-01-28T04:46:51.111Z,83.12
2023-01-28T04:49:18.769Z,82.70
2023-01-28T04:51:46.597Z,82.49
2023-01-28T04:54:14.242Z,83.11
2023-01-28T04:56:41.903Z,81.39
2023-01-28T04:59:10.940Z,82.22
2023-01-28T05:01:38.650Z,81.55
2023-01-28T05:04:06.410Z,81.89
2023-01-28T05:06:34.244Z,82.79
2023-01-28T05:09:01.929Z,82.74
2023-01-28T05:11:29.601Z,82.52
2023-01-28T05:13:57.293Z,82.97
2023-01-28T05:16:26.410Z,83.20
2023-01-28T05:18:54.078Z,83.26
2023-01-28T05:21:21.748Z,82.85
2023-01-28T05:23:49.448Z,82.44
2023-01-28T05:26:17.130Z,82.36
2023-01-28T05:28:44.872Z,82.37
2023-01-28T05:31:12.769Z,82.40
2023-01-28T05:33:41.817Z,81.95
2023-01-28T05:36:09.560Z,82.13
2023-01-28T05:38:37.205Z,82.17
2023-01-28T05:41:05.095Z,82.11
2023-01-28T05:43:32.831Z,81.72
2023-01-28T05:46:00.520Z,81.47
2023-01-28T05:48:28.198Z,80.65
2023-01-28T05:50:57.212Z,80.77
2023-01-28T05:53:25.034Z,80.82
2023-01-28T05:55:54.300Z,80.39
2023-01-28T05:58:22.803Z,81.30
2023-01-28T06:00:50.556Z,81.07
2023-01-28T06:03:18.213Z,80.50
2023-01-28T06:05:45.904Z,81.20
2023-01-28T06:08:14.981Z,81.14
2023-01-28T06:10:42.626Z,81.06
2023-01-28T06:13:10.296Z,81.47
2023-01-28T06:15:38.055Z,81.65
2023-01-28T06:18:05.798Z,81.54
2023-01-28T06:20:33.563Z,81.36
2023-01-28T06:23:01.231Z,81.55
2023-01-28T06:25:30.287Z,81.50
2023-01-28T06:27:57.952Z,80.75
2023-01-28T06:30:25.604Z,80.98
2023-01-28T06:32:56.112Z,81.14
2023-01-28T06:35:24.447Z,81.09
2023-01-28T06:37:52.484Z,81.53
2023-01-28T06:40:20.680Z,81.97
2023-01-28T06:42:50.521Z,83.65
2023-01-28T06:45:18.211Z,83.77
2023-01-28T06:47:45.837Z,83.76
2023-01-28T06:50:14.047Z,83.25
2023-01-28T06:52:42.204Z,82.86
2023-01-28T06:55:10.530Z,83.03
2023-01-28T06:57:39.700Z,83.03
2023-01-28T07:00:12.541Z,83.61
2023-01-28T07:02:41.369Z,84.57
2023-01-28T07:05:09.651Z,84.22
2023-01-28T07:07:38.302Z,84.54
2023-01-28T07:10:08.450Z,84.60
2023-01-28T07:12:36.076Z,84.78
2023-01-28T07:15:03.794Z,84.58
2023-01-28T07:17:32.988Z,84.83
2023-01-28T07:20:00.732Z,84.21
2023-01-28T07:22:28.355Z,83.96
2023-01-28T07:24:56.044Z,83.90
2023-01-28T07:27:23.652Z,83.59
2023-01-28T07:29:51.326Z,83.11
2023-01-28T07:32:18.927Z,82.89
2023-01-28T07:34:47.924Z,82.29
2023-01-28T07:37:16.125Z,82.46
2023-01-28T07:39:43.714Z,82.39
2023-01-28T07:42:11.365Z,83.02
2023-01-28T07:44:39.075Z,83.65
2023-01-28T07:47:07.734Z,83.64
2023-01-28T07:49:35.473Z,84.61
2023-01-28T07:52:04.554Z,84.25
2023-01-28T07:54:32.222Z,84.39
2023-01-28T07:56:59.859Z,84.58
2023-01-28T07:59:27.599Z,83.76
2023-01-28T08:01:55.313Z,82.74
2023-01-28T08:04:23.126Z,81.74
2023-01-28T08:06:52.210Z,83.17
2023-01-28T08:09:21.272Z,83.62
2023-01-28T08:11:48.921Z,84.20
2023-01-28T08:14:16.602Z,84.01
2023-01-28T08:16:44.249Z,83.45
2023-01-28T08:19:12.142Z,83.03
2023-01-28T08:21:39.743Z,84.53
2023-01-28T08:24:08.016Z,84.58
2023-01-28T08:26:37.065Z,84.21
2023-01-28T08:29:05.314Z,83.95
2023-01-28T08:31:33.519Z,85.14
2023-01-28T08:34:02.317Z,83.94
2023-01-28T08:36:30.116Z,84.00
2023-01-28T08:38:57.887Z,83.31
2023-01-28T08:41:25.673Z,83.00
2023-01-28T08:43:54.680Z,82.42
2023-01-28T08:46:22.429Z,81.46
2023-01-28T08:48:51.008Z,80.54
2023-01-28T08:51:18.674Z,79.72
2023-01-28T08:53:46.312Z,79.36
2023-01-28T08:56:14.307Z,79.43
2023-01-28T08:58:42.244Z,79.79
2023-01-28T09:01:11.447Z,79.09
2023-01-28T09:03:39.136Z,78.55
2023-01-28T09:06:07.380Z,77.96
2023-01-28T09:08:35.072Z,77.16
2023-01-28T09:11:02.852Z,76.88
2023-01-28T09:13:31.379Z,76.54
2023-01-28T09:15:59.073Z,76.38
2023-01-28T09:18:28.192Z,76.67
2023-01-28T09:20:55.906Z,76.04
2023-01-28T09:23:23.641Z,75.66
2023-01-28T09:25:51.344Z,75.35
2023-01-28T09:28:19.008Z,74.42
2023-01-28T09:30:46.712Z,74.95
2023-01-28T09:33:14.448Z,74.76
2023-01-28T09:35:43.569Z,74.75
2023-01-28T09:38:11.337Z,74.25
2023-01-28T09:40:42.126Z,74.27
2023-01-28T09:43:25.813Z,74.20
2023-01-28T09:45:56.723Z,73.87
2023-01-28T09:48:30.734Z,74.16
2023-01-28T09:51:01.745Z,72.84
2023-01-28T09:53:32.284Z,72.88
2023-01-28T09:56:03.460Z,73.26
2023-01-28T09:58:31.649Z,73.31
2023-01-28T10:01:07.255Z,73.02
2023-01-28T10:03:55.514Z,71.78
2023-01-28T10:06:35.232Z,70.76
2023-01-28T10:09:12.822Z,70.62
2023-01-28T10:11:55.710Z,70.39
2023-01-28T10:14:33.821Z,70.48
2023-01-28T10:17:08.930Z,70.88
2023-01-28T10:19:41.988Z,70.81
2023-01-28T10:22:17.293Z,70.94
2023-01-28T10:24:50.317Z,70.81
2023-01-28T10:27:20.919Z,70.23
2023-01-28T10:29:49.998Z,71.14
2023-01-28T10:32:24.357Z,70.02
2023-01-28T10:34:53.793Z,69.22
2023-01-28T10:37:23.141Z,69.51
2023-01-28T10:39:52.851Z,69.40
2023-01-28T10:42:28.239Z,69.78
2023-01-28T10:45:01.710Z,69.48
2023-01-28T10:47:34.403Z,69.20
2023-01-28T10:50:03.867Z,69.10
2023-01-28T10:52:33.241Z,68.28
2023-01-28T10:55:02.176Z,68.26
2023-01-28T10:57:30.094Z,68.29
2023-01-28T10:59:57.802Z,68.21
2023-01-28T11:02:32.931Z,67.60
2023-01-28T11:05:17.131Z,66.93
2023-01-28T11:07:48.266Z,68.27
2023-01-28T11:10:32.156Z,69.20
2023-01-28T11:13:01.658Z,69.51
2023-01-28T11:15:29.444Z,69.29
2023-01-28T11:18:00.151Z,68.91
2023-01-28T11:20:30.442Z,68.78
2023-01-28T11:22:59.529Z,68.86
2023-01-28T11:25:31.709Z,67.77
2023-01-28T11:28:00.893Z,67.90
2023-01-28T11:30:32.539Z,67.95
2023-01-28T11:33:06.540Z,67.46
2023-01-28T11:35:34.293Z,67.05
2023-01-28T11:38:03.404Z,66.72
2023-01-28T11:40:31.073Z,66.73
2023-01-28T11:42:59.796Z,67.74
2023-01-28T11:45:37.984Z,67.70
2023-01-28T11:48:24.237Z,67.83
2023-01-28T11:51:00.995Z,67.76
2023-01-28T11:53:52.360Z,67.77
2023-01-28T11:56:47.919Z,67.98
2023-01-28T11:59:31.802Z,67.99
2023-01-28T12:02:10.133Z,68.35
2023-01-28T12:04:56.442Z,68.10
2023-01-28T12:07:41.933Z,67.88
2023-01-28T12:10:22.970Z,68.10
2023-01-28T12:13:03.760Z,68.13
2023-01-28T12:16:05.438Z,68.20
2023-01-28T12:18:53.476Z,68.59
2023-01-28T12:21:35.251Z,68.46
2023-01-28T12:24:16.971Z,68.45
2023-01-28T12:26:52.760Z,68.40
2023-01-28T12:29:32.087Z,68.73
2023-01-28T12:32:31.500Z,67.48
2023-01-28T12:35:25.814Z,67.67
2023-01-28T12:38:10.162Z,67.95
2023-01-28T12:40:50.299Z,67.66
2023-01-28T12:43:25.420Z,67.25
2023-01-28T12:45:57.445Z,67.42
2023-01-28T12:48:31.680Z,68.08
2023-01-28T12:51:04.631Z,68.51
2023-01-28T12:53:40.034Z,68.59
2023-01-28T12:56:15.493Z,68.74
2023-01-28T12:58:50.730Z,68.80
2023-01-28T13:01:25.303Z,68.81
2023-01-28T13:03:59.198Z,67.54
2023-01-28T13:06:33.391Z,68.23
2023-01-28T13:09:07.274Z,68.37
2023-01-28T13:11:36.921Z,68.93
2023-01-28T13:14:06.953Z,69.20
2023-01-28T13:16:37.782Z,69.31
2023-01-28T13:19:08.857Z,69.42
2023-01-28T13:21:48.649Z,69.75
2023-01-28T13:24:33.076Z,69.79
2023-01-28T13:27:13.543Z,70.16
2023-01-28T13:29:43.850Z,69.08
2023-01-28T13:32:33.413Z,67.41
2023-01-28T13:35:03.976Z,67.10
2023-01-28T13:37:34.987Z,67.61
2023-01-28T13:40:10.331Z,67.62
2023-01-28T13:42:38.008Z,68.21
2023-01-28T13:45:24.615Z,67.47
2023-01-28T13:47:57.004Z,65.92
2023-01-28T13:50:26.735Z,65.22
2023-01-28T13:53:01.758Z,66.16
2023-01-28T13:55:44.317Z,67.43
2023-01-28T13:58:45.506Z,68.40
2023-01-28T14:01:30.637Z,68.43
2023-01-28T14:04:23.781Z,69.78
2023-01-28T14:07:05.113Z,70.00
2023-01-28T14:09:58.149Z,71.08
2023-01-28T14:13:04.589Z,72.06
2023-01-28T14:15:49.717Z,71.91
2023-01-28T14:18:27.133Z,73.05
2023-01-28T14:21:00.775Z,73.00
2023-01-28T14:23:31.167Z,72.49
2023-01-28T14:26:08.349Z,71.42
2023-01-28T14:28:45.632Z,72.63
2023-01-28T14:31:18.025Z,72.24
2023-01-28T14:33:46.270Z,71.39
2023-01-28T14:36:15.507Z,70.86
2023-01-28T14:38:45.681Z,70.92
2023-01-28T14:41:24.649Z,71.27
2023-01-28T14:43:54.016Z,71.53
2023-01-28T14:46:37.093Z,71.45
2023-01-28T14:49:18.882Z,70.35
2023-01-28T14:52:22.861Z,71.12
2023-01-28T14:55:03.537Z,70.87
2023-01-28T14:57:49.669Z,70.09
2023-01-28T15:00:23.295Z,70.40
2023-01-28T15:02:51.161Z,69.39
2023-01-28T15:05:21.697Z,69.40
2023-01-28T15:07:51.041Z,69.77
2023-01-28T15:10:22.676Z,70.21
2023-01-28T15:12:55.248Z,67.94
2023-01-28T15:15:30.062Z,68.76
2023-01-28T15:18:02.115Z,68.88
2023-01-28T15:20:30.062Z,70.01
2023-01-28T15:22:59.919Z,69.59
2023-01-28T15:25:29.972Z,69.74
2023-01-28T15:28:01.575Z,69.56
2023-01-28T15:30:31.156Z,69.24
2023-01-28T15:33:04.133Z,68.99
2023-01-28T15:35:32.537Z,67.97
2023-01-28T15:38:01.613Z,68.35
2023-01-28T15:40:31.689Z,68.40
2023-01-28T15:42:59.386Z,66.75
2023-01-28T15:45:29.106Z,66.90
2023-01-28T15:48:05.473Z,66.42
2023-01-28T15:50:33.470Z,67.37
2023-01-28T15:53:02.525Z,68.18
2023-01-28T15:55:36.208Z,67.65
2023-01-28T15:58:29.753Z,67.74
2023-01-28T16:01:11.685Z,67.85
2023-01-28T16:03:40.711Z,67.47
2023-01-28T16:06:10.532Z,67.52
2023-01-28T16:08:43.071Z,67.91
2023-01-28T16:11:11.583Z,68.28
2023-01-28T16:13:44.557Z,69.00
2023-01-28T16:16:13.858Z,68.86
2023-01-28T16:18:47.404Z,68.69
2023-01-28T16:21:23.829Z,68.65
2023-01-28T16:23:54.793Z,67.16
2023-01-28T16:26:24.854Z,67.54
2023-01-28T16:28:52.871Z,67.56
2023-01-28T16:31:21.211Z,67.05
2023-01-28T16:33:49.020Z,67.89
2023-01-28T16:36:19.180Z,66.55
2023-01-28T16:38:47.248Z,66.64
2023-01-28T16:41:24.914Z,67.03
2023-01-28T16:43:52.520Z,66.83
2023-01-28T16:46:20.390Z,67.89
2023-01-28T16:48:48.061Z,67.88
2023-01-28T16:51:18.031Z,68.09
2023-01-28T16:53:47.884Z,68.46
2023-01-28T16:56:30.676Z,69.36
2023-01-28T16:59:03.771Z,69.13
2023-01-28T17:01:31.384Z,69.57
2023-01-28T17:03:59.120Z,70.09
2023-01-28T17:06:27.023Z,69.82
2023-01-28T17:08:54.728Z,69.58
2023-01-28T17:11:23.764Z,69.18
2023-01-28T17:13:51.413Z,68.64
2023-01-28T17:16:19.059Z,68.16
2023-01-28T17:18:50.899Z,68.39
2023-01-28T17:21:18.635Z,68.67
2023-01-28T17:23:46.424Z,67.84
2023-01-28T17:26:15.928Z,67.61
2023-01-28T17:28:45.084Z,67.68
2023-01-28T17:31:14.973Z,67.55
2023-01-28T17:33:43.123Z,66.85
2023-01-28T17:36:11.235Z,66.11
2023-01-28T17:38:39.025Z,66.57
2023-01-28T17:41:08.872Z,66.98
2023-01-28T17:43:36.511Z,66.46
2023-01-28T17:46:13.343Z,67.43
2023-01-28T17:48:41.507Z,67.46
2023-01-28T17:51:09.452Z,66.52
2023-01-28T17:53:37.071Z,66.86
2023-01-28T17:56:05.264Z,67.34
2023-01-28T17:58:32.952Z,68.22
2023-01-28T18:01:00.635Z,67.82
2023-01-28T18:03:29.678Z,67.04
2023-01-28T18:06:00.291Z,67.15
2023-01-28T18:08:28.105Z,66.33
2023-01-28T18:10:56.147Z,66.95
2023-01-28T18:13:23.910Z,66.61
2023-01-28T18:15:51.683Z,67.01
2023-01-28T18:18:19.370Z,67.71
2023-01-28T18:20:57.856Z,68.12
2023-01-28T18:23:25.569Z,68.03
2023-01-28T18:25:56.779Z,67.81
2023-01-28T18:28:24.950Z,67.52
2023-01-28T18:30:52.944Z,67.75
2023-01-28T18:33:21.224Z,68.21
2023-01-28T18:35:50.876Z,68.30
2023-01-28T18:38:19.205Z,68.48
2023-01-28T18:40:47.296Z,68.70
2023-01-28T18:43:15.767Z,69.19
2023-01-28T18:45:45.718Z,69.45
2023-01-28T18:48:13.475Z,68.77
2023-01-28T18:50:41.244Z,68.95
2023-01-28T18:53:10.317Z,69.21
2023-01-28T18:55:37.984Z,70.14
2023-01-28T18:58:05.654Z,70.00
2023-01-28T19:00:33.383Z,70.34
2023-01-28T19:03:02.375Z,69.85
2023-01-28T19:05:30.054Z,68.67
2023-01-28T19:07:58.902Z,68.80
2023-01-28T19:10:28.227Z,68.05
2023-01-28T19:12:55.924Z,68.26
2023-01-28T19:15:23.624Z,68.67
2023-01-28T19:17:51.416Z,68.88
2023-01-28T19:20:19.382Z,69.64
2023-01-28T19:22:47.415Z,69.16
2023-01-28T19:25:16.331Z,69.81
2023-01-28T19:27:45.614Z,69.38
2023-01-28T19:30:13.493Z,68.97
2023-01-28T19:32:41.210Z,69.67
2023-01-28T19:35:09.100Z,70.33
2023-01-28T19:37:36.764Z,69.99
2023-01-28T19:40:05.170Z,69.44
2023-01-28T19:42:32.862Z,70.18
2023-01-28T19:45:03.983Z,70.46
2023-01-28T19:47:31.864Z,71.03
2023-01-28T19:49:59.729Z,70.09
2023-01-28T19:52:27.466Z,71.13
2023-01-28T19:54:55.117Z,69.31
2023-01-28T19:57:22.806Z,69.79
2023-01-28T19:59:50.454Z,70.39
2023-01-28T20:02:19.538Z,70.80
2023-01-28T20:04:59.501Z,70.87
2023-01-28T20:07:28.485Z,71.35
2023-01-28T20:09:56.227Z,71.32
2023-01-28T20:12:23.939Z,71.67
2023-01-28T20:14:51.620Z,71.51
2023-01-28T20:17:21.651Z,71.50
2023-01-28T20:19:49.764Z,71.06
2023-01-28T20:22:17.405Z,70.30
2023-01-28T20:24:45.252Z,70.75
2023-01-28T20:27:12.962Z,70.97
2023-01-28T20:29:40.611Z,71.54
2023-01-28T20:32:17.575Z,71.20
2023-01-28T20:34:47.523Z,72.47
2023-01-28T20:37:15.202Z,72.02
2023-01-28T20:39:43.594Z,72.16
2023-01-28T20:42:13.160Z,72.04
2023-01-28T20:44:40.905Z,71.63
2023-01-28T20:47:08.775Z,72.42
2023-01-28T20:49:36.470Z,73.27
2023-01-28T20:52:05.752Z,73.50
2023-01-28T20:54:33.438Z,72.94
2023-01-28T20:57:01.178Z,72.95
2023-01-28T20:59:29.136Z,73.91
2023-01-28T21:01:56.847Z,73.67
2023-01-28T21:04:24.540Z,73.56
2023-01-28T21:06:52.307Z,73.83
2023-01-28T21:09:22.697Z,73.97
2023-01-28T21:11:50.218Z,73.46
2023-01-28T21:14:18.367Z,73.22
2023-01-28T21:16:47.214Z,73.78
2023-01-28T21:19:15.553Z,73.85
2023-01-28T21:21:45.096Z,73.72
2023-01-28T21:24:13.239Z,73.78
2023-01-28T21:26:42.312Z,74.10
2023-01-28T21:29:09.955Z,73.64
2023-01-28T21:31:37.679Z,74.75
2023-01-28T21:34:05.252Z,74.34
2023-01-28T21:36:34.326Z,74.52
2023-01-28T21:39:03.388Z,74.78
2023-01-28T21:41:31.881Z,74.42
2023-01-28T21:44:01.201Z,74.74
2023-01-28T21:46:31.705Z,75.10
2023-01-28T21:49:00.123Z,75.45
2023-01-28T21:51:40.212Z,75.57
2023-01-28T21:54:10.771Z,75.78
2023-01-28T21:56:38.586Z,76.52
2023-01-28T21:59:25.360Z,76.39
2023-01-28T22:01:53.095Z,76.91
2023-01-28T22:04:21.449Z,77.32
2023-01-28T22:06:49.345Z,76.71
2023-01-28T22:09:17.079Z,76.86
2023-01-28T22:11:45.992Z,76.93
2023-01-28T22:14:15.273Z,77.35
2023-01-28T22:16:43.418Z,77.40
2023-01-28T22:19:11.653Z,77.49
2023-01-28T22:21:41.724Z,77.53
2023-01-28T22:24:11.429Z,77.86
2023-01-28T22:26:39.299Z,77.44
2023-01-28T22:29:07.597Z,78.37
2023-01-28T22:31:37.209Z,77.92
2023-01-28T22:34:05.996Z,77.82
2023-01-28T22:36:34.230Z,78.37
2023-01-28T22:39:03.185Z,78.11
2023-01-28T22:41:30.918Z,78.35
2023-01-28T22:44:01.410Z,78.10
2023-01-28T22:46:29.412Z,78.16
2023-01-28T22:48:58.820Z,77.35
2023-01-28T22:51:29.106Z,78.38
2023-01-28T22:53:57.203Z,78.34
2023-01-28T22:56:27.222Z,78.29
2023-01-28T22:58:55.882Z,79.02
2023-01-28T23:01:23.971Z,78.92
2023-01-28T23:03:52.184Z,79.15
2023-01-28T23:06:23.506Z,78.81
2023-01-28T23:08:51.622Z,78.97
2023-01-28T23:11:27.173Z,78.84
2023-01-28T23:14:28.845Z,79.13
2023-01-28T23:17:14.318Z,79.37
2023-01-28T23:20:11.292Z,79.15
2023-01-28T23:22:57.919Z,78.79
2023-01-28T23:25:25.709Z,79.14
2023-01-28T23:27:53.329Z,78.81
2023-01-28T23:30:25.130Z,79.88
2023-01-28T23:32:56.989Z,79.48
2023-01-28T23:35:25.799Z,79.83
2023-01-28T23:37:55.627Z,79.85
2023-01-28T23:40:24.576Z,80.55
2023-01-28T23:42:52.704Z,80.05
2023-01-28T23:45:21.164Z,80.34
2023-01-28T23:47:49.534Z,80.20
2023-01-28T23:50:18.095Z,79.91
2023-01-28T23:52:46.015Z,80.67
2023-01-28T23:55:15.824Z,80.98
2023-01-28T23:57:43.527Z,80.53
